Valleydale, Ohio
Current Conditions -  °F | °C
As of 2:53 AM on Thursday 23 Oct 2014 (Local Time) from KLUK Reporting Station
Overcast Overcast  
Wind Chill: 45°   Ceiling: 3200
Heat Index: 45°   Visibility: 10mi
Dew Point: 42°   Wind: 0mph
Humidity: 90%   Direction: NA
Pressure: 30.28"   Gusts: NA
Location:  39.1981°N, 84.4817°W
Report Text: KLUK 230653Z AUTO 00000KT 10SM OVC032 07/06 A3028 RMK AO2 SLP255 T00720056
Loading
Personal Weather Stations






























Interactive Weather Map
Tropical Storm Tracking
New forecast layout! Learn more

10-Day Weather Forecast

Advertisements
Track Severe Weather on mobile